首页
METAR-TAF:

METAR-TAF

机场 :

卡托维兹, 波兰

纬度: 50-28-27N, 经度: 019-04-48E, 海拔: 284米

当前天气观测

该预报发布于16分钟前的00:30 UTC
风速1节,风向多变
温度 9°C
湿度 93%
气压 1014 hPa
能見度: 8000

METAR: EPKT 170030Z VRB01KT 8000 NSC 09/08 Q1014

时间: 02:46 (00:46 UTC)

预报

该预报发布于1小时和16分钟前的23:30 UTC
预报有效从17日的 00点(UTC)到 17日的 24点(UTC)
风速2节,风向多变
能見度: 8000
成为
从 17日的 00点(UTC)到 17日的 03点(UTC)
能見度: 0100
阴天层高于100英尺
成为
从 17日的 03点(UTC)到 17日的 06点(UTC)
能见度10公里或以上
1500米以下无云,无积雨云
成为
从 17日的 15点(UTC)到 17日的 17点(UTC)
风速10节,风向
几率 40% :
短暂存在
从 17日的 15点(UTC)到 17日的 20点(UTC)
多云层高于5000英尺, 积雨云.
小阵雨,

TAF: EPKT 162330Z 1700/1724 VRB02KT 8000 NSC BECMG 1700/1703 0100 FG OVC001 BECMG 1703/1706 CAVOK BECMG 1715/1717 19010KT PROB40 TEMPO 1715/1720 -SHRA BKN050CB

超过4000个机场的气象观测和天气预报(METAR&TAF报告)。

可查询的气象台以黄色和红色小点在地图上表示。

将鼠标移到小点上方,可查看气象台名称。

然后点击查看天气观测和预报。

如需切换地图:点击带黑十字的绿色按钮放大地图;点击带横线的绿色按钮缩小地图;或者点击绿色箭头查看邻近地区的地图。


METAR-TAF: